createdAt,value
2019-03-12T00:00:17.290Z,991.17
2019-03-12T00:01:17.244Z,991.18
2019-03-12T00:02:17.201Z,991.13
2019-03-12T00:03:17.157Z,991.09
2019-03-12T00:04:17.115Z,991.05
2019-03-12T00:05:17.073Z,991.11
2019-03-12T00:06:17.030Z,991.11
2019-03-12T00:07:16.988Z,991.15
2019-03-12T00:08:16.949Z,991.13
2019-03-12T00:09:16.898Z,991.10
2019-03-12T00:10:16.863Z,991.09
2019-03-12T00:11:16.816Z,991.02
2019-03-12T00:12:16.776Z,991.04
2019-03-12T00:13:16.727Z,990.97
2019-03-12T00:14:16.689Z,990.92
2019-03-12T00:15:16.653Z,990.89
2019-03-12T00:16:16.597Z,990.87
2019-03-12T00:17:16.561Z,990.88
2019-03-12T00:18:16.517Z,990.89
2019-03-12T00:19:16.473Z,990.91
2019-03-12T00:20:16.431Z,990.99
2019-03-12T00:21:16.382Z,990.96
2019-03-12T00:22:16.342Z,990.95
2019-03-12T00:23:16.300Z,990.94
2019-03-12T00:24:16.252Z,990.93
2019-03-12T00:25:16.214Z,990.93
2019-03-12T00:26:16.170Z,990.90
2019-03-12T00:27:16.124Z,990.93
2019-03-12T00:28:16.080Z,990.95
2019-03-12T00:29:16.043Z,990.90
2019-03-12T00:30:16.049Z,990.94
2019-03-12T00:31:15.954Z,990.93
2019-03-12T00:32:15.913Z,990.96
2019-03-12T00:33:15.865Z,991.01
2019-03-12T00:34:15.824Z,991.01
2019-03-12T00:35:15.782Z,991.06
2019-03-12T00:36:15.740Z,991.08
2019-03-12T00:37:15.701Z,991.06
2019-03-12T00:38:15.653Z,991.11
2019-03-12T00:39:15.610Z,991.10
2019-03-12T00:40:15.569Z,991.09
2019-03-12T00:41:15.520Z,991.05
2019-03-12T00:42:15.478Z,991.12
2019-03-12T00:43:15.437Z,991.12
2019-03-12T00:44:15.401Z,991.11
2019-03-12T00:45:15.351Z,991.13
2019-03-12T00:46:15.308Z,991.08
2019-03-12T00:47:15.262Z,991.09
2019-03-12T00:48:15.218Z,991.10
2019-03-12T00:49:15.178Z,991.11
2019-03-12T00:50:15.137Z,991.08
2019-03-12T00:51:15.098Z,991.05
2019-03-12T00:52:15.049Z,991.04
2019-03-12T00:53:15.004Z,991.09
2019-03-12T00:54:14.962Z,991.09
2019-03-12T00:55:15.008Z,991.08
2019-03-12T00:56:14.879Z,991.08
2019-03-12T00:57:14.833Z,991.07
2019-03-12T00:58:14.788Z,990.97
2019-03-12T00:59:14.748Z,990.99
2019-03-12T01:00:14.702Z,991.04
2019-03-12T01:01:14.664Z,991.00
2019-03-12T01:02:14.621Z,990.98
2019-03-12T01:03:14.582Z,991.02
2019-03-12T01:04:14.535Z,990.91
2019-03-12T01:05:14.489Z,990.91
2019-03-12T01:06:14.444Z,990.95
2019-03-12T01:07:14.401Z,990.88
2019-03-12T01:08:14.362Z,990.84
2019-03-12T01:09:14.319Z,990.83
2019-03-12T01:10:14.287Z,990.82
2019-03-12T01:11:14.230Z,990.81
2019-03-12T01:12:14.184Z,990.80
2019-03-12T01:13:14.143Z,990.79
2019-03-12T01:14:14.104Z,990.74
2019-03-12T01:15:14.062Z,990.71
2019-03-12T01:16:14.029Z,990.73
2019-03-12T01:17:13.972Z,990.68
2019-03-12T01:18:14.073Z,990.70
2019-03-12T01:19:13.882Z,990.68
2019-03-12T01:20:13.846Z,990.65
2019-03-12T01:21:13.798Z,990.65
2019-03-12T01:22:13.758Z,990.66
2019-03-12T01:23:13.717Z,990.65
2019-03-12T01:24:13.668Z,990.65
2019-03-12T01:25:13.633Z,990.61
2019-03-12T01:26:13.585Z,990.62
2019-03-12T01:27:13.544Z,990.60
2019-03-12T01:28:13.501Z,990.63
2019-03-12T01:29:13.456Z,990.61
2019-03-12T01:30:13.412Z,990.60
2019-03-12T01:31:13.365Z,990.59
2019-03-12T01:32:13.328Z,990.60
2019-03-12T01:33:13.281Z,990.54
2019-03-12T01:34:13.240Z,990.56
2019-03-12T01:35:13.199Z,990.50
2019-03-12T01:36:21.797Z,990.49
2019-03-12T01:38:26.589Z,990.49
2019-03-12T01:39:17.499Z,990.50
2019-03-12T01:40:17.450Z,990.47
2019-03-12T01:41:26.054Z,990.49
2019-03-12T01:43:19.832Z,990.47
2019-03-12T01:44:10.669Z,990.43
2019-03-12T01:45:19.265Z,990.43
2019-03-12T01:47:15.000Z,990.35
2019-03-12T01:48:14.957Z,990.35
2019-03-12T01:49:14.916Z,990.32
2019-03-12T01:50:14.867Z,990.33
2019-03-12T01:51:14.827Z,990.29
2019-03-12T01:52:14.784Z,990.26
2019-03-12T01:53:14.742Z,990.26
2019-03-12T01:54:14.699Z,990.25
2019-03-12T01:55:14.717Z,990.25
2019-03-12T01:56:14.609Z,990.23
2019-03-12T01:57:14.565Z,990.24
2019-03-12T01:58:14.757Z,990.23
2019-03-12T01:59:14.480Z,990.21
2019-03-12T02:00:14.439Z,990.16
2019-03-12T02:01:14.398Z,990.14
2019-03-12T02:02:14.353Z,990.15
2019-03-12T02:03:14.308Z,990.16
2019-03-12T02:04:14.267Z,990.15
2019-03-12T02:05:14.217Z,990.14
2019-03-12T02:06:14.180Z,990.12
2019-03-12T02:07:14.135Z,990.11
2019-03-12T02:08:14.091Z,990.08
2019-03-12T02:09:14.044Z,990.10
2019-03-12T02:10:14.003Z,990.08
2019-03-12T02:11:13.961Z,990.08
2019-03-12T02:12:13.927Z,990.05
2019-03-12T02:13:13.877Z,990.08
2019-03-12T02:14:13.839Z,990.03
2019-03-12T02:15:13.793Z,990.05
2019-03-12T02:16:13.750Z,989.99
2019-03-12T02:17:13.703Z,989.93
2019-03-12T02:18:13.655Z,989.94
2019-03-12T02:19:13.614Z,989.94
2019-03-12T02:20:13.575Z,989.90
2019-03-12T02:21:13.531Z,989.86
2019-03-12T02:22:13.487Z,989.89
2019-03-12T02:23:13.445Z,989.91
2019-03-12T02:24:13.401Z,989.91
2019-03-12T02:25:13.360Z,989.93
2019-03-12T02:26:13.316Z,989.90
2019-03-12T02:27:13.274Z,989.91
2019-03-12T02:28:13.227Z,989.87
2019-03-12T02:29:13.184Z,989.88
2019-03-12T02:30:13.141Z,989.86
2019-03-12T02:31:13.135Z,989.82
2019-03-12T02:32:13.061Z,989.87
2019-03-12T02:33:13.015Z,989.87
2019-03-12T02:34:12.980Z,989.82
2019-03-12T02:35:12.934Z,989.84
2019-03-12T02:36:12.883Z,989.83
2019-03-12T02:37:12.839Z,989.83
2019-03-12T02:38:12.797Z,989.83
2019-03-12T02:39:12.752Z,989.83
2019-03-12T02:40:12.710Z,989.82
2019-03-12T02:41:12.663Z,989.87
2019-03-12T02:42:12.882Z,989.82
2019-03-12T02:43:12.582Z,989.83
2019-03-12T02:44:12.542Z,989.82
2019-03-12T02:45:12.502Z,989.84
2019-03-12T02:46:12.454Z,989.78
2019-03-12T02:47:12.431Z,989.81
2019-03-12T02:48:12.363Z,989.79
2019-03-12T02:49:12.318Z,989.81
2019-03-12T02:50:12.274Z,989.78
2019-03-12T02:51:12.233Z,989.81
2019-03-12T02:52:12.192Z,989.82
2019-03-12T02:53:12.152Z,989.83
2019-03-12T02:54:12.117Z,989.85
2019-03-12T02:55:12.101Z,989.85
2019-03-12T02:56:12.019Z,989.83
2019-03-12T02:57:11.980Z,989.81
2019-03-12T02:58:11.939Z,989.79
2019-03-12T02:59:11.907Z,989.83
2019-03-12T03:00:11.844Z,989.81
2019-03-12T03:01:11.797Z,989.82
2019-03-12T03:02:11.761Z,989.77
2019-03-12T03:03:11.713Z,989.79
2019-03-12T03:04:11.684Z,989.76
2019-03-12T03:05:11.633Z,989.77
2019-03-12T03:06:11.586Z,989.76
2019-03-12T03:07:11.546Z,989.77
2019-03-12T03:08:11.498Z,989.77
2019-03-12T03:09:11.456Z,989.79
2019-03-12T03:10:11.416Z,989.74
2019-03-12T03:11:11.373Z,989.77
2019-03-12T03:12:11.325Z,989.77
2019-03-12T03:13:11.284Z,989.74
2019-03-12T03:14:11.241Z,989.78
2019-03-12T03:15:11.197Z,989.75
2019-03-12T03:16:11.152Z,989.76
2019-03-12T03:17:11.110Z,989.78
2019-03-12T03:18:11.080Z,989.74
2019-03-12T03:19:11.025Z,989.71
2019-03-12T03:20:10.998Z,989.72
2019-03-12T03:21:10.940Z,989.71
2019-03-12T03:22:10.891Z,989.69
2019-03-12T03:23:10.849Z,989.68
2019-03-12T03:24:10.807Z,989.73
2019-03-12T03:25:10.771Z,989.70
2019-03-12T03:26:10.717Z,989.68
2019-03-12T03:27:10.675Z,989.68
2019-03-12T03:28:10.634Z,989.65
2019-03-12T03:29:10.601Z,989.58
2019-03-12T03:43:53.991Z,989.51
2019-03-12T03:44:53.940Z,989.53
2019-03-12T03:45:53.881Z,989.49
2019-03-12T03:46:53.831Z,989.50
2019-03-12T03:47:53.782Z,989.48
2019-03-12T03:48:53.733Z,989.45
2019-03-12T03:49:53.688Z,989.46
2019-03-12T03:50:53.648Z,989.43
2019-03-12T03:51:53.604Z,989.41
2019-03-12T03:52:53.560Z,989.43
2019-03-12T03:53:53.513Z,989.41
2019-03-12T03:54:53.468Z,989.37
2019-03-12T03:55:53.429Z,989.35
2019-03-12T03:56:53.385Z,989.34
2019-03-12T03:57:53.353Z,989.35
2019-03-12T03:58:53.295Z,989.34
2019-03-12T03:59:53.260Z,989.28
2019-03-12T04:00:53.209Z,989.27
2019-03-12T04:01:53.165Z,989.25
2019-03-12T04:02:53.119Z,989.22
2019-03-12T04:03:53.075Z,989.18
2019-03-12T04:04:53.035Z,989.17
2019-03-12T04:05:52.991Z,989.14
2019-03-12T04:06:52.946Z,989.16
2019-03-12T04:07:52.902Z,989.15
2019-03-12T04:08:52.859Z,989.12
2019-03-12T04:09:52.822Z,989.17
2019-03-12T04:10:52.777Z,989.14
2019-03-12T04:11:52.726Z,989.18
2019-03-12T04:12:52.681Z,989.12
2019-03-12T04:13:52.635Z,989.10
2019-03-12T04:14:52.595Z,989.11
2019-03-12T04:15:52.566Z,989.07
2019-03-12T04:16:52.516Z,989.05
2019-03-12T04:17:52.470Z,989.08
2019-03-12T04:18:52.425Z,989.11
2019-03-12T04:19:52.379Z,989.07
2019-03-12T04:20:52.337Z,989.03
2019-03-12T04:21:52.297Z,989.04
2019-03-12T04:22:52.250Z,989.03
2019-03-12T04:23:52.207Z,989.07
2019-03-12T04:24:52.167Z,989.02
2019-03-12T04:25:52.123Z,989.03
2019-03-12T04:26:52.076Z,988.98
2019-03-12T04:27:52.035Z,989.03
2019-03-12T04:28:51.995Z,988.99
2019-03-12T04:29:51.950Z,988.99
2019-03-12T04:30:51.911Z,988.99
2019-03-12T04:31:51.859Z,988.96
2019-03-12T04:32:51.823Z,988.94
2019-03-12T04:33:51.772Z,988.92
2019-03-12T04:34:51.730Z,988.88
2019-03-12T04:35:51.697Z,988.88
2019-03-12T04:36:51.652Z,988.88
2019-03-12T04:37:51.604Z,988.83
2019-03-12T04:38:51.559Z,988.83
2019-03-12T04:39:51.528Z,988.83
2019-03-12T04:40:51.469Z,988.78
2019-03-12T04:41:51.433Z,988.81
2019-03-12T04:43:00.041Z,988.76
2019-03-12T04:44:55.775Z,988.76
2019-03-12T04:45:55.710Z,988.71
2019-03-12T04:46:55.671Z,988.69
2019-03-12T04:47:55.629Z,988.69
2019-03-12T04:48:55.584Z,988.67
2019-03-12T04:49:55.537Z,988.65
2019-03-12T04:50:55.491Z,988.63
2019-03-12T04:51:55.449Z,988.61
2019-03-12T04:52:55.403Z,988.58
2019-03-12T04:53:55.363Z,988.56
2019-03-12T04:54:55.319Z,988.52
2019-03-12T04:55:55.282Z,988.48
2019-03-12T04:56:55.232Z,988.41
2019-03-12T04:57:55.189Z,988.33
2019-03-12T04:58:55.147Z,988.35
2019-03-12T04:59:55.106Z,988.27
2019-03-12T05:00:55.065Z,988.32
2019-03-12T05:01:55.018Z,988.30
2019-03-12T05:02:54.972Z,988.29
2019-03-12T05:03:54.927Z,988.29
2019-03-12T05:04:54.884Z,988.22
2019-03-12T05:05:54.946Z,988.17
2019-03-12T05:06:54.801Z,988.17
2019-03-12T05:07:54.761Z,988.16
2019-03-12T05:08:54.717Z,988.13
2019-03-12T05:09:54.678Z,988.11
2019-03-12T05:10:54.629Z,988.16
2019-03-12T05:11:54.581Z,988.06
2019-03-12T05:12:54.557Z,988.05
2019-03-12T05:13:54.500Z,988.03
2019-03-12T05:14:54.457Z,988.06
2019-03-12T05:15:54.409Z,988.04
2019-03-12T05:16:54.366Z,988.00
2019-03-12T05:17:54.325Z,988.03
2019-03-12T05:18:54.285Z,988.03
2019-03-12T05:19:54.242Z,988.01
2019-03-12T05:20:54.200Z,988.02
2019-03-12T05:21:54.154Z,988.01
2019-03-12T05:22:54.108Z,987.96
2019-03-12T05:23:54.063Z,987.93
2019-03-12T05:24:54.020Z,987.96
2019-03-12T05:25:53.979Z,987.95
2019-03-12T05:26:53.938Z,987.96
2019-03-12T05:27:53.896Z,987.91
2019-03-12T05:28:53.853Z,987.91
2019-03-12T05:29:53.806Z,987.93
2019-03-12T05:30:53.766Z,987.89
2019-03-12T05:31:53.723Z,987.93
2019-03-12T05:32:53.682Z,987.91
2019-03-12T05:33:53.640Z,987.90
2019-03-12T05:34:53.590Z,987.87
2019-03-12T05:35:53.550Z,987.80
2019-03-12T05:36:53.502Z,987.79
2019-03-12T05:37:53.461Z,987.76
2019-03-12T05:38:53.419Z,987.73
2019-03-12T05:39:53.381Z,987.70
2019-03-12T05:40:53.335Z,987.71
2019-03-12T05:41:53.292Z,987.67
2019-03-12T05:42:53.245Z,987.65
2019-03-12T05:43:53.200Z,987.69
2019-03-12T05:44:53.167Z,987.69
2019-03-12T05:45:53.119Z,987.65
2019-03-12T05:46:53.072Z,987.63
2019-03-12T05:47:53.027Z,987.56
2019-03-12T05:48:52.984Z,987.59
2019-03-12T05:49:52.945Z,987.57
2019-03-12T05:50:52.901Z,987.60
2019-03-12T05:51:52.861Z,987.57
2019-03-12T05:52:52.816Z,987.58
2019-03-12T05:53:52.777Z,987.59
2019-03-12T05:54:52.726Z,987.61
2019-03-12T05:55:52.686Z,987.55
2019-03-12T05:56:52.643Z,987.60
2019-03-12T05:57:52.597Z,987.56
2019-03-12T05:58:52.559Z,987.56
2019-03-12T05:59:52.517Z,987.53
2019-03-12T06:00:52.469Z,987.36
2019-03-12T06:01:52.426Z,987.42
2019-03-12T06:02:52.390Z,987.38
2019-03-12T06:03:52.342Z,987.42
2019-03-12T06:04:52.300Z,987.34
2019-03-12T06:05:52.259Z,987.37
2019-03-12T06:06:52.209Z,987.38
2019-03-12T06:07:55.227Z,987.36
2019-03-12T06:08:52.127Z,987.35
2019-03-12T06:09:52.083Z,987.28
2019-03-12T06:10:52.044Z,987.25
2019-03-12T06:11:51.999Z,987.16
2019-03-12T06:12:51.957Z,987.23
2019-03-12T06:13:51.917Z,987.19
2019-03-12T06:14:51.866Z,987.22
2019-03-12T06:15:53.229Z,987.19
2019-03-12T06:16:51.785Z,987.27
2019-03-12T06:17:51.743Z,987.25
2019-03-12T06:18:51.697Z,987.20
2019-03-12T06:19:51.655Z,987.21
2019-03-12T06:20:51.611Z,987.08
2019-03-12T06:21:51.588Z,987.20
2019-03-12T06:22:51.528Z,987.12
2019-03-12T06:23:51.484Z,987.21
2019-03-12T06:24:51.440Z,987.01
2019-03-12T06:25:51.402Z,987.19
2019-03-12T06:26:51.351Z,987.15
2019-03-12T06:27:51.311Z,987.15
2019-03-12T06:28:51.268Z,987.17
2019-03-12T06:29:51.222Z,987.21
2019-03-12T06:30:51.187Z,987.19
2019-03-12T06:31:51.141Z,987.14
2019-03-12T06:32:51.101Z,987.14
2019-03-12T06:33:51.052Z,987.12
2019-03-12T06:34:51.014Z,987.11
2019-03-12T06:35:54.092Z,987.06
2019-03-12T06:36:50.927Z,987.07
2019-03-12T06:37:50.886Z,987.01
2019-03-12T06:38:50.837Z,987.00
2019-03-12T06:39:50.797Z,986.94
2019-03-12T06:40:50.753Z,986.95
2019-03-12T06:41:50.722Z,986.99
2019-03-12T06:42:50.673Z,986.87
2019-03-12T06:43:50.626Z,986.91
2019-03-12T06:44:50.586Z,986.95
2019-03-12T06:45:50.545Z,986.91
2019-03-12T06:46:50.495Z,986.97
2019-03-12T06:47:50.456Z,986.99
2019-03-12T06:48:50.414Z,986.88
2019-03-12T06:49:50.374Z,986.95
2019-03-12T06:50:50.324Z,986.92
2019-03-12T06:51:50.284Z,986.88
2019-03-12T06:52:50.247Z,986.82
2019-03-12T06:53:50.197Z,986.90
2019-03-12T06:54:50.169Z,986.90
2019-03-12T06:55:50.114Z,986.89
2019-03-12T06:56:50.073Z,986.80
2019-03-12T06:57:50.031Z,986.84
2019-03-12T06:58:49.987Z,986.78
2019-03-12T06:59:49.941Z,986.78
2019-03-12T07:00:49.899Z,986.77
2019-03-12T07:01:49.856Z,986.72
2019-03-12T07:02:49.818Z,986.68
2019-03-12T07:03:49.787Z,986.70
2019-03-12T07:04:49.728Z,986.64
2019-03-12T07:05:49.685Z,986.71
2019-03-12T07:06:49.678Z,986.69
2019-03-12T07:07:49.605Z,986.67
2019-03-12T07:08:49.560Z,986.62
2019-03-12T07:09:49.523Z,986.69
2019-03-12T07:10:49.522Z,986.60
2019-03-12T07:11:49.430Z,986.65
2019-03-12T07:12:49.388Z,986.55
2019-03-12T07:13:49.352Z,986.55
2019-03-12T07:14:49.308Z,986.58
2019-03-12T07:15:49.262Z,986.59
2019-03-12T07:16:49.220Z,986.52
2019-03-12T07:17:49.181Z,986.52
2019-03-12T07:18:49.131Z,986.54
2019-03-12T07:19:49.097Z,986.50
2019-03-12T07:20:49.051Z,986.49
2019-03-12T07:21:49.011Z,986.47
2019-03-12T07:22:48.962Z,986.52
2019-03-12T07:23:48.920Z,986.42
2019-03-12T07:24:48.886Z,986.43
2019-03-12T07:25:50.902Z,986.39
2019-03-12T07:26:48.799Z,986.47
2019-03-12T07:27:48.752Z,986.45
2019-03-12T07:28:50.571Z,986.44
2019-03-12T07:29:48.690Z,986.43
2019-03-12T07:30:48.622Z,986.38
2019-03-12T07:31:48.581Z,986.42
2019-03-12T07:32:48.539Z,986.41
2019-03-12T07:33:48.494Z,986.33
2019-03-12T07:34:48.457Z,986.31
2019-03-12T07:35:48.413Z,986.37
2019-03-12T07:36:48.369Z,986.32
2019-03-12T07:37:48.325Z,986.31
2019-03-12T07:38:48.288Z,986.35
2019-03-12T07:39:48.243Z,986.33
2019-03-12T07:40:48.210Z,986.25
2019-03-12T07:41:48.163Z,986.27
2019-03-12T07:42:48.112Z,986.21
2019-03-12T07:43:48.073Z,986.24
2019-03-12T07:44:48.030Z,986.21
2019-03-12T07:45:47.986Z,986.12
2019-03-12T07:46:47.949Z,986.15
2019-03-12T07:47:47.906Z,986.16
2019-03-12T07:48:47.864Z,986.18
2019-03-12T07:49:47.822Z,986.16
2019-03-12T07:50:47.772Z,986.16
2019-03-12T07:51:47.734Z,986.04
2019-03-12T07:52:47.698Z,986.12
2019-03-12T07:53:58.844Z,986.03
2019-03-12T07:54:47.604Z,986.05
2019-03-12T07:55:47.563Z,986.08
2019-03-12T07:56:47.526Z,986.06
2019-03-12T07:57:47.478Z,986.12
2019-03-12T07:58:47.441Z,986.11
2019-03-12T07:59:47.397Z,985.93
2019-03-12T08:00:47.355Z,986.00
2019-03-12T08:01:47.316Z,985.91
2019-03-12T08:02:47.265Z,985.96
2019-03-12T08:03:47.225Z,985.92
2019-03-12T08:04:47.183Z,985.92
2019-03-12T08:05:47.140Z,985.87
2019-03-12T08:06:47.102Z,985.85
2019-03-12T08:07:47.061Z,985.81
2019-03-12T08:08:47.015Z,985.85
2019-03-12T08:09:46.971Z,985.88
2019-03-12T08:10:46.935Z,985.95
2019-03-12T08:11:46.891Z,985.90
2019-03-12T08:12:46.850Z,985.83
2019-03-12T08:13:46.808Z,985.80
2019-03-12T08:14:46.759Z,985.82
2019-03-12T08:15:46.719Z,985.79
2019-03-12T08:16:46.679Z,985.82
2019-03-12T08:17:46.636Z,985.80
2019-03-12T08:18:46.597Z,985.75
2019-03-12T08:19:46.555Z,985.75
2019-03-12T08:20:46.515Z,985.72
2019-03-12T08:21:49.547Z,985.67
2019-03-12T08:22:46.422Z,985.64
2019-03-12T08:23:46.382Z,985.59
2019-03-12T08:24:46.343Z,985.52
2019-03-12T08:25:46.302Z,985.53
2019-03-12T08:26:46.255Z,985.47
2019-03-12T08:27:46.214Z,985.47
2019-03-12T08:28:46.172Z,985.50
2019-03-12T08:29:46.135Z,985.41
2019-03-12T08:30:46.093Z,985.43
2019-03-12T08:31:46.049Z,985.37
2019-03-12T08:32:46.008Z,985.36
2019-03-12T08:33:50.646Z,985.31
2019-03-12T08:34:45.921Z,985.42
2019-03-12T08:35:45.878Z,985.33
2019-03-12T08:36:45.836Z,985.39
2019-03-12T08:37:45.793Z,985.33
2019-03-12T08:38:46.469Z,985.32
2019-03-12T08:39:45.712Z,985.32
2019-03-12T08:40:52.353Z,985.34
2019-03-12T08:41:45.624Z,985.30
2019-03-12T08:42:54.603Z,985.24
2019-03-12T08:43:45.545Z,985.24
2019-03-12T08:44:45.505Z,985.17
2019-03-12T08:45:48.486Z,985.15
2019-03-12T08:46:45.413Z,985.14
2019-03-12T08:47:45.374Z,985.11
2019-03-12T08:48:45.337Z,985.18
2019-03-12T08:49:45.290Z,985.11
2019-03-12T08:50:45.255Z,985.20
2019-03-12T08:51:45.208Z,985.10
2019-03-12T08:52:45.166Z,985.07
2019-03-12T08:53:45.127Z,985.05
2019-03-12T08:54:54.282Z,985.09
2019-03-12T08:55:45.038Z,985.03
2019-03-12T08:56:45.000Z,984.96
2019-03-12T08:57:45.037Z,984.97
2019-03-12T08:58:44.912Z,984.93
2019-03-12T08:59:44.883Z,984.91
2019-03-12T09:00:44.840Z,984.92
2019-03-12T09:01:47.536Z,984.83
2019-03-12T09:02:44.753Z,984.76
2019-03-12T09:03:44.705Z,984.76
2019-03-12T09:04:44.670Z,984.80
2019-03-12T09:05:44.626Z,984.77
2019-03-12T09:06:44.578Z,984.74
2019-03-12T09:07:44.537Z,984.69
2019-03-12T09:08:44.495Z,984.73
2019-03-12T09:09:44.453Z,984.63
2019-03-12T09:10:44.416Z,984.66
2019-03-12T09:11:44.377Z,984.71
2019-03-12T09:12:44.328Z,984.63
2019-03-12T09:13:44.285Z,984.62
2019-03-12T09:14:44.251Z,984.58
2019-03-12T09:15:44.212Z,984.53
2019-03-12T09:16:44.163Z,984.46
2019-03-12T09:17:44.124Z,984.46
2019-03-12T09:18:44.081Z,984.47
2019-03-12T09:19:44.038Z,984.47
2019-03-12T09:20:43.999Z,984.40
2019-03-12T09:21:43.953Z,984.35
2019-03-12T09:22:43.918Z,984.31
2019-03-12T09:23:43.882Z,984.29
2019-03-12T09:24:43.834Z,984.06
2019-03-12T09:25:43.796Z,984.19
2019-03-12T09:26:43.743Z,983.99
2019-03-12T09:27:43.706Z,984.10
2019-03-12T09:28:43.663Z,984.17
2019-03-12T09:29:43.625Z,984.09
2019-03-12T09:30:43.578Z,983.98
2019-03-12T09:31:43.544Z,984.00
2019-03-12T09:32:43.495Z,984.00
2019-03-12T09:33:43.451Z,983.98
2019-03-12T09:34:43.415Z,983.97
2019-03-12T09:35:43.373Z,983.83
2019-03-12T09:36:43.331Z,983.80
2019-03-12T09:37:43.291Z,983.80
2019-03-12T09:38:43.243Z,983.75
2019-03-12T09:39:43.204Z,983.76
2019-03-12T09:40:43.163Z,983.72
2019-03-12T09:41:43.119Z,983.66
2019-03-12T09:42:43.083Z,983.64
2019-03-12T09:57:19.433Z,983.33
2019-03-12T09:58:19.339Z,983.35
2019-03-12T09:59:19.291Z,983.36
2019-03-12T10:00:19.252Z,983.28
2019-03-12T10:01:19.204Z,983.27
2019-03-12T10:02:19.161Z,983.27
2019-03-12T10:03:19.112Z,983.31
2019-03-12T10:04:19.128Z,983.23
2019-03-12T10:05:19.027Z,983.27
2019-03-12T10:06:18.988Z,983.20
2019-03-12T10:07:18.945Z,983.19
2019-03-12T10:08:18.905Z,983.19
2019-03-12T10:09:18.875Z,983.06
2019-03-12T10:10:18.814Z,983.02
2019-03-12T10:11:18.771Z,982.98
2019-03-12T10:12:18.726Z,982.92
2019-03-12T10:13:18.688Z,982.99
2019-03-12T10:14:18.646Z,982.98
2019-03-12T10:15:18.605Z,982.80
2019-03-12T10:16:18.557Z,982.90
2019-03-12T10:17:18.517Z,982.76
2019-03-12T10:18:18.481Z,982.82
2019-03-12T10:19:18.437Z,982.82
2019-03-12T10:20:18.404Z,982.76
2019-03-12T10:21:18.350Z,982.76
2019-03-12T10:22:18.307Z,982.72
2019-03-12T10:23:18.266Z,982.75
2019-03-12T10:24:18.237Z,982.72
2019-03-12T10:25:18.182Z,982.72
2019-03-12T10:26:18.142Z,982.66
2019-03-12T10:27:18.111Z,982.69
2019-03-12T10:28:18.062Z,982.64
2019-03-12T10:29:18.020Z,982.70
2019-03-12T10:30:17.973Z,982.65
2019-03-12T10:31:17.939Z,982.61
2019-03-12T10:32:17.895Z,982.51
2019-03-12T10:33:17.851Z,982.59
2019-03-12T10:34:28.874Z,982.48
2019-03-12T10:35:17.765Z,982.55
2019-03-12T10:36:17.820Z,982.55
2019-03-12T10:37:17.688Z,982.46
2019-03-12T10:38:17.649Z,982.50
2019-03-12T10:39:17.605Z,982.40
2019-03-12T10:40:17.565Z,982.47
2019-03-12T10:41:17.521Z,982.35
2019-03-12T10:42:17.483Z,982.23
2019-03-12T10:43:26.112Z,982.20
2019-03-12T10:45:21.883Z,982.23
2019-03-12T10:46:21.842Z,982.13
2019-03-12T10:47:21.772Z,982.06
2019-03-12T10:48:21.742Z,982.13
2019-03-12T10:49:21.710Z,982.14
2019-03-12T10:50:21.652Z,982.01
2019-03-12T10:51:21.613Z,981.97
2019-03-12T10:52:21.573Z,981.97
2019-03-12T10:53:21.530Z,981.96
2019-03-12T10:54:21.487Z,981.88
2019-03-12T10:55:21.446Z,981.78
2019-03-12T10:56:21.412Z,981.82
2019-03-12T10:57:21.684Z,981.81
2019-03-12T10:58:21.338Z,981.76
2019-03-12T10:59:21.281Z,981.69
2019-03-12T11:00:21.239Z,981.65
2019-03-12T11:01:21.202Z,981.56
2019-03-12T11:02:21.163Z,981.50
2019-03-12T11:03:21.126Z,981.47
2019-03-12T11:04:21.086Z,981.37
2019-03-12T11:05:21.045Z,981.33
2019-03-12T11:06:20.996Z,981.27
2019-03-12T11:07:20.955Z,981.32
2019-03-12T11:08:20.912Z,981.26
2019-03-12T11:09:20.876Z,981.35
2019-03-12T11:10:20.852Z,981.35
2019-03-12T11:11:20.796Z,981.33
2019-03-12T11:12:20.861Z,981.32
2019-03-12T11:13:20.714Z,981.40
2019-03-12T11:14:20.674Z,981.32
2019-03-12T11:15:20.635Z,981.47
2019-03-12T11:16:20.607Z,981.37
2019-03-12T11:17:20.554Z,981.36
2019-03-12T11:18:20.508Z,981.40
2019-03-12T11:19:20.466Z,981.36
2019-03-12T11:20:20.428Z,981.36
2019-03-12T11:21:20.387Z,981.34
2019-03-12T11:22:20.347Z,981.34
2019-03-12T11:23:20.308Z,981.33
2019-03-12T11:24:20.272Z,981.38
2019-03-12T11:25:27.068Z,981.35
2019-03-12T11:26:20.186Z,981.27
2019-03-12T11:27:20.140Z,981.20
2019-03-12T11:28:20.107Z,981.17
2019-03-12T11:29:20.067Z,981.08
2019-03-12T11:30:20.026Z,981.17
2019-03-12T11:31:19.986Z,981.16
2019-03-12T11:32:19.945Z,981.14
2019-03-12T11:33:19.935Z,981.02
2019-03-12T11:34:19.866Z,981.07
2019-03-12T11:35:19.826Z,981.05
2019-03-12T11:36:19.825Z,981.01
2019-03-12T11:37:19.769Z,980.95
2019-03-12T11:38:19.741Z,980.94
2019-03-12T11:39:19.662Z,981.01
2019-03-12T11:40:19.621Z,980.97
2019-03-12T11:41:19.582Z,980.99
2019-03-12T11:42:19.588Z,980.68
2019-03-12T11:43:19.509Z,980.93
2019-03-12T11:44:19.461Z,980.95
2019-03-12T11:45:20.690Z,980.77
2019-03-12T11:46:19.385Z,980.83
2019-03-12T11:47:19.343Z,980.78
2019-03-12T11:48:19.305Z,980.70
2019-03-12T11:49:19.276Z,980.74
2019-03-12T11:50:19.237Z,980.80
2019-03-12T11:51:19.181Z,980.59
2019-03-12T11:52:19.139Z,980.62
2019-03-12T11:53:19.100Z,980.58
2019-03-12T11:54:19.066Z,980.56
2019-03-12T11:55:19.059Z,980.43
2019-03-12T11:56:18.984Z,980.49
2019-03-12T11:57:18.957Z,980.41
2019-03-12T11:58:18.899Z,980.45
2019-03-12T11:59:18.861Z,980.46
2019-03-12T12:00:19.544Z,980.28
2019-03-12T12:01:18.781Z,980.31
2019-03-12T12:02:18.740Z,980.31
2019-03-12T12:03:18.696Z,980.28
2019-03-12T12:04:18.656Z,980.23
2019-03-12T12:05:18.621Z,980.23
2019-03-12T12:06:18.581Z,980.17
2019-03-12T12:07:18.544Z,980.02
2019-03-12T12:08:18.517Z,980.08
2019-03-12T12:09:18.464Z,979.93
2019-03-12T12:10:18.438Z,979.99
2019-03-12T12:11:18.378Z,979.85
2019-03-12T12:12:18.336Z,979.82
2019-03-12T12:13:18.306Z,979.80
2019-03-12T12:14:18.331Z,979.75
2019-03-12T12:15:18.241Z,979.83
2019-03-12T12:16:18.182Z,979.83
2019-03-12T12:17:18.138Z,979.81
2019-03-12T12:18:18.106Z,979.85
2019-03-12T12:19:18.067Z,979.87
2019-03-12T12:20:28.904Z,979.59
2019-03-12T12:21:18.046Z,979.69
2019-03-12T12:22:17.940Z,979.64
2019-03-12T12:23:17.912Z,979.66
2019-03-12T12:24:17.854Z,979.61
2019-03-12T12:25:17.820Z,979.66
2019-03-12T12:26:17.779Z,979.51
2019-03-12T12:27:17.739Z,979.48
2019-03-12T12:28:17.705Z,979.50
2019-03-12T12:29:17.671Z,979.44
2019-03-12T12:30:17.617Z,979.45
2019-03-12T12:31:17.574Z,979.51
2019-03-12T12:32:17.542Z,979.51
2019-03-12T12:33:17.501Z,979.41
2019-03-12T12:34:17.456Z,979.31
2019-03-12T12:35:17.417Z,979.43
2019-03-12T12:36:17.373Z,979.34
2019-03-12T12:37:17.337Z,979.35
2019-03-12T12:38:17.308Z,979.31
2019-03-12T12:39:17.260Z,979.31
2019-03-12T12:40:17.220Z,979.20
2019-03-12T12:41:17.177Z,979.10
2019-03-12T12:42:17.137Z,978.97
2019-03-12T12:43:17.093Z,979.00
2019-03-12T12:44:17.054Z,978.89
2019-03-12T12:45:17.016Z,978.99
2019-03-12T12:46:16.980Z,978.98
2019-03-12T12:47:16.941Z,978.92
2019-03-12T12:48:16.895Z,978.94
2019-03-12T12:49:16.860Z,978.85
2019-03-12T12:50:16.825Z,978.90
2019-03-12T12:51:16.782Z,978.89
2019-03-12T12:52:16.739Z,978.84
2019-03-12T12:53:16.697Z,978.77
2019-03-12T12:54:16.657Z,978.76
2019-03-12T12:55:16.611Z,978.77
2019-03-12T12:56:16.573Z,978.66
2019-03-12T12:57:16.537Z,978.61
2019-03-12T12:58:16.497Z,978.60
2019-03-12T12:59:16.471Z,978.61
2019-03-12T13:00:16.421Z,978.41